Orbital elements of FENGYUN 1C DEB
| Launched | 9 May 1999 |
| Flight ended | – |
| Launch site | Taiyuan Space Center, PRC |
| Owner | People's Republic of China |
| NORAD ID | 36696 |
| Date fetched |
Epoch osculation |
Inc. [°] |
Ecc. | RA asc node [hr] |
Arg Peri. [°] |
Mean anom [°] |
Mean motion [rev/day] |
Abs. mag |
| Date fetched |
Epoch osculation |
Inc. [°] |
Ecc. | RA asc node [hr] |
Arg Peri. [°] |
Mean anom [°] |
Mean motion [rev/day] |
Abs. mag |
| 2026 May 03 17:57 | 2026 Apr 30 07:16:31 | 98.9848 | 0.00204 | 9.4116 | 276.0779 | 83.8082 | 14.40975 | – |
| 2026 May 02 17:57 | 2026 Apr 30 07:16:31 | 98.9848 | 0.00204 | 9.4116 | 276.0779 | 83.8082 | 14.40975 | – |
| 2026 May 01 17:56 | 2026 Apr 30 07:16:31 | 98.9848 | 0.00204 | 9.4116 | 276.0779 | 83.8082 | 14.40975 | – |
| 2026 Apr 30 17:56 | 2026 Apr 30 07:16:31 | 98.9848 | 0.00204 | 9.4116 | 276.0779 | 83.8082 | 14.40975 | – |
| 2026 Apr 29 17:57 | 2026 Apr 22 19:17:25 | 98.9850 | 0.00205 | 8.8863 | 300.9889 | 83.8082 | 14.40975 | – |
| 2026 Apr 28 17:56 | 2026 Apr 22 19:17:25 | 98.9850 | 0.00205 | 8.8863 | 300.9889 | 83.8082 | 14.40975 | – |
| 2026 Apr 27 17:58 | 2026 Apr 22 19:17:25 | 98.9850 | 0.00205 | 8.8863 | 300.9889 | 83.8082 | 14.40975 | – |
| 2026 Apr 26 17:58 | 2026 Apr 22 19:17:25 | 98.9850 | 0.00205 | 8.8863 | 300.9889 | 83.8082 | 14.40975 | – |
| 2026 Apr 25 17:58 | 2026 Apr 22 19:17:25 | 98.9850 | 0.00205 | 8.8863 | 300.9889 | 83.8082 | 14.40975 | – |
| 2026 Apr 24 17:59 | 2026 Apr 22 19:17:25 | 98.9850 | 0.00205 | 8.8863 | 300.9889 | 83.8082 | 14.40975 | – |
| 2026 Apr 23 17:57 | 2026 Apr 17 07:37:49 | 98.9837 | 0.00207 | 8.5020 | 319.1499 | 83.8082 | 14.40975 | – |
| 2026 Apr 22 17:57 | 2026 Apr 17 07:37:49 | 98.9837 | 0.00207 | 8.5020 | 319.1499 | 83.8082 | 14.40975 | – |
| 2026 Apr 21 17:57 | 2026 Apr 17 07:37:49 | 98.9837 | 0.00207 | 8.5020 | 319.1499 | 83.8082 | 14.40975 | – |
| 2026 Apr 20 17:57 | 2026 Apr 17 07:37:49 | 98.9837 | 0.00207 | 8.5020 | 319.1499 | 83.8082 | 14.40975 | – |
| 2026 Apr 19 17:58 | 2026 Apr 17 07:37:49 | 98.9837 | 0.00207 | 8.5020 | 319.1499 | 83.8082 | 14.40975 | – |
| 2026 Apr 18 17:56 | 2026 Apr 10 18:58:05 | 98.9869 | 0.00212 | 8.0449 | 339.6161 | 83.8082 | 14.40975 | – |
| 2026 Apr 16 17:57 | 2026 Apr 10 18:58:05 | 98.9869 | 0.00212 | 8.0449 | 339.6161 | 83.8082 | 14.40975 | – |
| 2026 Apr 14 17:57 | 2026 Apr 10 18:58:05 | 98.9869 | 0.00212 | 8.0449 | 339.6161 | 83.8082 | 14.40975 | – |
| 2026 Apr 13 17:57 | 2026 Apr 10 18:58:05 | 98.9869 | 0.00212 | 8.0449 | 339.6161 | 83.8082 | 14.40975 | – |
| 2026 Apr 12 17:57 | 2026 Apr 04 06:18:03 | 98.9861 | 0.00218 | 7.5877 | 359.9733 | 83.8082 | 14.40975 | – |
| 2026 Apr 11 17:57 | 2026 Apr 04 06:18:03 | 98.9861 | 0.00218 | 7.5877 | 359.9733 | 83.8082 | 14.40975 | – |
| 2026 Apr 10 17:58 | 2026 Apr 04 06:18:03 | 98.9861 | 0.00218 | 7.5877 | 359.9733 | 83.8082 | 14.40975 | – |
| 2026 Apr 09 18:01 | 2026 Apr 04 06:18:03 | 98.9861 | 0.00218 | 7.5877 | 359.9733 | 83.8082 | 14.40975 | – |
| 2026 Apr 08 17:57 | 2026 Apr 04 06:18:03 | 98.9861 | 0.00218 | 7.5877 | 359.9733 | 83.8082 | 14.40975 | – |
| 2026 Apr 07 17:57 | 2026 Mar 31 12:17:47 | 98.9870 | 0.00223 | 7.3251 | 11.1566 | 83.8082 | 14.40975 | – |
| 2026 Apr 06 17:57 | 2026 Mar 31 12:17:47 | 98.9870 | 0.00223 | 7.3251 | 11.1566 | 83.8082 | 14.40975 | – |